createdAt,value
2018-08-10T04:00:28.365Z,18.75
2018-08-10T04:01:28.325Z,18.74
2018-08-10T04:02:28.323Z,18.75
2018-08-10T04:03:28.312Z,18.76
2018-08-10T04:04:28.285Z,18.75
2018-08-10T04:05:28.282Z,18.75
2018-08-10T04:06:28.299Z,18.75
2018-08-10T04:07:28.277Z,18.78
2018-08-10T04:08:28.245Z,18.66
2018-08-10T04:09:28.236Z,18.78
2018-08-10T04:10:28.234Z,18.79
2018-08-10T04:11:28.211Z,18.65
2018-08-10T04:12:28.209Z,18.66
2018-08-10T04:13:28.209Z,18.66
2018-08-10T04:14:28.209Z,18.68
2018-08-10T04:15:28.177Z,18.57
2018-08-10T04:16:28.166Z,18.65
2018-08-10T04:17:28.143Z,18.65
2018-08-10T04:18:28.161Z,18.57
2018-08-10T04:19:28.121Z,18.62
2018-08-10T04:20:28.108Z,18.62
2018-08-10T04:21:28.104Z,18.64
2018-08-10T04:22:28.084Z,18.60
2018-08-10T04:23:28.095Z,18.50
2018-08-10T04:24:28.065Z,18.62
2018-08-10T04:25:28.059Z,18.54
2018-08-10T04:26:28.046Z,18.62
2018-08-10T04:27:28.031Z,18.59
2018-08-10T04:28:28.042Z,18.57
2018-08-10T04:29:28.070Z,18.65
2018-08-10T04:30:28.009Z,18.56
2018-08-10T04:31:27.983Z,18.59
2018-08-10T04:32:27.978Z,18.59
2018-08-10T04:33:27.990Z,18.64
2018-08-10T04:34:27.971Z,18.60
2018-08-10T04:35:27.953Z,18.62
2018-08-10T04:36:27.938Z,18.62
2018-08-10T04:37:27.916Z,18.62
2018-08-10T04:38:27.931Z,18.66
2018-08-10T04:39:27.899Z,18.66
2018-08-10T04:40:27.913Z,18.65
2018-08-10T04:41:27.871Z,18.65
2018-08-10T04:42:27.860Z,18.62
2018-08-10T04:43:27.868Z,18.57
2018-08-10T04:44:27.843Z,18.64
2018-08-10T04:45:27.837Z,18.57
2018-08-10T04:46:27.823Z,18.53
2018-08-10T04:47:27.808Z,18.64
2018-08-10T04:48:27.817Z,18.60
2018-08-10T04:49:27.794Z,18.72
2018-08-10T04:50:27.775Z,18.66
2018-08-10T04:51:27.782Z,18.59
2018-08-10T04:52:27.750Z,18.65
2018-08-10T04:53:27.781Z,18.59
2018-08-10T04:54:27.730Z,18.65
2018-08-10T04:55:27.754Z,18.57
2018-08-10T04:56:27.718Z,18.68
2018-08-10T04:57:27.715Z,18.69
2018-08-10T04:58:27.707Z,18.66
2018-08-10T04:59:27.679Z,18.65
2018-08-10T05:00:27.660Z,18.62
2018-08-10T05:01:27.658Z,18.62
2018-08-10T05:02:27.642Z,18.59
2018-08-10T05:03:27.656Z,18.64
2018-08-10T05:04:27.637Z,18.62
2018-08-10T05:05:27.628Z,18.64
2018-08-10T05:06:27.594Z,18.66
2018-08-10T05:07:27.588Z,18.65
2018-08-10T05:08:27.607Z,18.57
2018-08-10T05:09:27.568Z,18.64
2018-08-10T05:10:27.548Z,18.69
2018-08-10T05:11:27.545Z,18.65
2018-08-10T05:12:27.535Z,18.76
2018-08-10T05:13:27.524Z,18.75
2018-08-10T05:14:27.513Z,18.69
2018-08-10T05:15:27.498Z,18.74
2018-08-10T05:16:27.486Z,18.78
2018-08-10T05:17:27.470Z,18.74
2018-08-10T05:18:27.476Z,18.68
2018-08-10T05:19:27.455Z,18.72
2018-08-10T05:20:27.442Z,18.72
2018-08-10T05:21:27.429Z,18.69
2018-08-10T05:22:27.418Z,18.66
2018-08-10T05:23:27.414Z,18.66
2018-08-10T05:24:27.391Z,18.68
2018-08-10T05:25:27.384Z,18.64
2018-08-10T05:26:27.370Z,18.71
2018-08-10T05:27:27.359Z,18.69
2018-08-10T05:28:27.369Z,18.64
2018-08-10T05:29:27.352Z,18.74
2018-08-10T05:30:27.326Z,18.74
2018-08-10T05:31:27.316Z,18.76
2018-08-10T05:32:27.306Z,18.74
2018-08-10T05:33:27.303Z,18.64
2018-08-10T05:34:27.284Z,18.64
2018-08-10T05:35:27.273Z,18.65
2018-08-10T05:36:27.261Z,18.65
2018-08-10T05:37:27.246Z,18.64
2018-08-10T05:38:27.251Z,18.66
2018-08-10T05:39:27.225Z,18.72
2018-08-10T05:40:27.217Z,18.66
2018-08-10T05:41:27.248Z,18.68
2018-08-10T05:42:27.194Z,18.69
2018-08-10T05:43:27.201Z,18.68
2018-08-10T05:44:27.170Z,18.65
2018-08-10T05:45:27.163Z,18.64
2018-08-10T05:46:27.227Z,18.57
2018-08-10T05:47:27.138Z,18.47
2018-08-10T05:48:27.150Z,18.49
2018-08-10T05:49:27.115Z,18.51
2018-08-10T05:50:27.107Z,18.56
2018-08-10T05:51:27.092Z,18.53
2018-08-10T05:52:27.145Z,18.56
2018-08-10T05:53:27.082Z,18.53
2018-08-10T05:54:27.065Z,18.53
2018-08-10T05:55:27.048Z,18.46
2018-08-10T05:56:27.035Z,18.39
2018-08-10T05:57:27.077Z,18.46
2018-08-10T05:58:27.025Z,18.46
2018-08-10T05:59:27.003Z,18.42
2018-08-10T06:00:26.992Z,18.39
2018-08-10T06:01:26.983Z,18.35
2018-08-10T06:02:26.968Z,18.42
2018-08-10T06:03:26.993Z,18.32
2018-08-10T06:04:26.950Z,18.26
2018-08-10T06:05:26.935Z,18.29
2018-08-10T06:06:26.930Z,18.29
2018-08-10T06:07:26.918Z,18.32
2018-08-10T06:08:26.922Z,18.32
2018-08-10T06:09:26.896Z,18.34
2018-08-10T06:10:26.911Z,18.38
2018-08-10T06:11:26.872Z,18.29
2018-08-10T06:12:26.857Z,18.34
2018-08-10T06:13:26.850Z,18.35
2018-08-10T06:14:26.846Z,18.25
2018-08-10T06:15:26.863Z,18.36
2018-08-10T06:16:26.813Z,18.29
2018-08-10T06:17:26.802Z,18.28
2018-08-10T06:18:26.797Z,18.20
2018-08-10T06:19:26.855Z,18.26
2018-08-10T06:20:26.768Z,18.21
2018-08-10T06:21:26.759Z,18.26
2018-08-10T06:22:26.769Z,18.28
2018-08-10T06:23:26.734Z,18.32
2018-08-10T06:24:26.738Z,18.41
2018-08-10T06:25:26.715Z,18.39
2018-08-10T06:26:26.703Z,18.31
2018-08-10T06:27:26.691Z,18.29
2018-08-10T06:28:26.683Z,18.36
2018-08-10T06:29:26.719Z,18.42
2018-08-10T06:30:26.657Z,18.46
2018-08-10T06:31:26.646Z,18.46
2018-08-10T06:32:26.636Z,18.46
2018-08-10T06:33:26.623Z,18.49
2018-08-10T06:34:26.622Z,18.54
2018-08-10T06:35:26.608Z,18.53
2018-08-10T06:36:26.589Z,18.57
2018-08-10T06:37:26.581Z,18.66
2018-08-10T06:38:26.575Z,18.74
2018-08-10T06:39:26.567Z,18.71
2018-08-10T06:40:26.546Z,18.75
2018-08-10T06:41:26.539Z,18.78
2018-08-10T06:42:26.532Z,18.82
2018-08-10T06:43:26.513Z,18.90
2018-08-10T06:44:26.514Z,18.90
2018-08-10T06:45:26.493Z,18.90
2018-08-10T06:46:26.510Z,18.91
2018-08-10T06:47:26.471Z,18.90
2018-08-10T06:48:26.472Z,18.78
2018-08-10T06:49:26.458Z,18.64
2018-08-10T06:50:26.436Z,18.78
2018-08-10T06:51:26.426Z,18.78
2018-08-10T06:52:26.461Z,18.76
2018-08-10T06:53:26.401Z,18.83
2018-08-10T06:54:26.407Z,18.79
2018-08-10T06:55:26.384Z,18.87
2018-08-10T06:56:26.371Z,18.89
2018-08-10T06:57:26.360Z,18.94
2018-08-10T06:58:26.347Z,18.91
2018-08-10T06:59:26.349Z,18.96
2018-08-10T07:00:26.363Z,19.07
2018-08-10T07:01:26.360Z,19.15
2018-08-10T07:02:26.306Z,19.31
2018-08-10T07:03:26.297Z,19.49
2018-08-10T07:04:26.292Z,19.79
2018-08-10T07:05:26.268Z,20.05
2018-08-10T07:06:26.256Z,20.13
2018-08-10T07:07:26.263Z,20.23
2018-08-10T07:08:26.235Z,20.38
2018-08-10T07:09:26.233Z,20.46
2018-08-10T07:10:26.211Z,20.60
2018-08-10T07:11:26.215Z,20.48
2018-08-10T07:12:26.194Z,20.46
2018-08-10T07:13:26.183Z,20.40
2018-08-10T07:14:26.189Z,20.48
2018-08-10T07:15:26.157Z,20.71
2018-08-10T07:16:26.144Z,20.90
2018-08-10T07:17:26.138Z,20.83
2018-08-10T07:18:26.126Z,20.68
2018-08-10T07:19:26.124Z,20.64
2018-08-10T07:20:26.101Z,20.61
2018-08-10T07:21:26.095Z,20.53
2018-08-10T07:22:26.078Z,20.46
2018-08-10T07:23:26.072Z,20.44
2018-08-10T07:24:26.068Z,20.40
2018-08-10T07:25:26.048Z,20.16
2018-08-10T07:26:26.038Z,20.20
2018-08-10T07:27:26.023Z,19.94
2018-08-10T07:28:26.012Z,19.95
2018-08-10T07:29:26.015Z,19.90
2018-08-10T07:30:25.991Z,19.89
2018-08-10T07:31:25.979Z,19.78
2018-08-10T07:32:25.972Z,19.79
2018-08-10T07:33:25.959Z,19.80
2018-08-10T07:34:26.016Z,19.85
2018-08-10T07:35:25.934Z,19.90
2018-08-10T07:36:25.922Z,20.25
2018-08-10T07:37:25.921Z,20.46
2018-08-10T07:38:25.906Z,20.61
2018-08-10T07:39:25.904Z,20.50
2018-08-10T07:40:25.880Z,20.54
2018-08-10T07:41:25.867Z,20.54
2018-08-10T07:42:25.859Z,20.35
2018-08-10T07:43:25.846Z,20.60
2018-08-10T07:44:25.843Z,20.68
2018-08-10T07:45:25.826Z,20.68
2018-08-10T07:46:25.872Z,20.64
2018-08-10T07:47:25.831Z,20.78
2018-08-10T07:48:25.790Z,20.91
2018-08-10T07:49:25.796Z,20.83
2018-08-10T07:50:25.777Z,20.98
2018-08-10T07:51:25.761Z,21.43
2018-08-10T07:52:25.754Z,21.77
2018-08-10T07:53:25.734Z,22.08
2018-08-10T07:54:25.739Z,22.36
2018-08-10T07:55:25.718Z,22.76
2018-08-10T07:56:25.705Z,22.89
2018-08-10T07:57:25.693Z,22.99
2018-08-10T07:58:25.686Z,22.91
2018-08-10T07:59:25.688Z,22.81
2018-08-10T08:00:25.662Z,22.89
2018-08-10T08:01:25.647Z,23.04
2018-08-10T08:02:25.634Z,23.16
2018-08-10T08:03:25.624Z,23.42
2018-08-10T08:04:25.628Z,23.44
2018-08-10T08:05:25.605Z,23.60
2018-08-10T08:06:25.662Z,23.63
2018-08-10T08:07:25.580Z,23.93
2018-08-10T08:08:25.577Z,24.27
2018-08-10T08:09:25.577Z,24.14
2018-08-10T08:10:25.558Z,24.11
2018-08-10T08:11:25.538Z,24.46
2018-08-10T08:12:25.524Z,24.53
2018-08-10T08:13:25.514Z,24.75
2018-08-10T08:14:25.626Z,24.36
2018-08-10T08:15:25.496Z,23.62
2018-08-10T08:16:25.486Z,23.77
2018-08-10T08:17:25.471Z,24.09
2018-08-10T08:18:25.460Z,24.61
2018-08-10T08:19:25.503Z,24.59
2018-08-10T08:20:25.447Z,24.71
2018-08-10T08:21:25.427Z,25.08
2018-08-10T08:22:25.483Z,25.34
2018-08-10T08:23:25.406Z,25.39
2018-08-10T08:24:25.395Z,25.29
2018-08-10T08:25:25.392Z,25.38
2018-08-10T08:26:25.371Z,25.74
2018-08-10T08:27:25.360Z,25.90
2018-08-10T08:28:25.351Z,25.91
2018-08-10T08:29:25.342Z,26.23
2018-08-10T08:30:25.341Z,25.14
2018-08-10T08:31:25.316Z,25.56
2018-08-10T08:32:25.307Z,24.90
2018-08-10T08:33:25.296Z,24.44
2018-08-10T08:34:25.290Z,24.66
2018-08-10T08:35:25.284Z,24.92
2018-08-10T08:36:25.261Z,24.60
2018-08-10T08:37:25.251Z,25.08
2018-08-10T08:38:25.312Z,25.31
2018-08-10T08:39:25.239Z,25.05
2018-08-10T08:40:25.227Z,25.16
2018-08-10T08:41:25.213Z,24.80
2018-08-10T08:42:25.196Z,24.08
2018-08-10T08:43:25.188Z,23.68
2018-08-10T08:44:25.175Z,23.35
2018-08-10T08:45:25.194Z,23.54
2018-08-10T08:46:25.494Z,22.99
2018-08-10T08:47:25.174Z,22.94
2018-08-10T08:48:25.166Z,23.26
2018-08-10T08:49:25.138Z,22.72
2018-08-10T08:50:25.122Z,23.11
2018-08-10T08:51:25.097Z,23.52
2018-08-10T08:52:25.087Z,24.15
2018-08-10T08:53:25.078Z,24.68
2018-08-10T08:54:25.064Z,25.17
2018-08-10T08:55:25.065Z,24.41
2018-08-10T08:56:25.042Z,25.22
2018-08-10T08:57:25.037Z,25.54
2018-08-10T08:58:25.021Z,25.74
2018-08-10T08:59:25.060Z,26.19
2018-08-10T09:00:25.011Z,26.56
2018-08-10T09:01:24.990Z,26.20
2018-08-10T09:02:24.985Z,26.21
2018-08-10T09:03:24.967Z,26.81
2018-08-10T09:04:24.956Z,26.83
2018-08-10T09:05:24.952Z,27.08
2018-08-10T09:06:24.932Z,27.06
2018-08-10T09:07:25.013Z,27.03
2018-08-10T09:08:24.912Z,27.09
2018-08-10T09:09:24.901Z,27.38
2018-08-10T09:10:24.977Z,27.16
2018-08-10T09:11:24.884Z,27.28
2018-08-10T09:12:24.867Z,27.81
2018-08-10T09:13:24.862Z,28.17
2018-08-10T09:14:24.890Z,28.60
2018-08-10T09:15:24.844Z,28.79
2018-08-10T09:16:24.820Z,28.97
2018-08-10T09:17:24.868Z,28.82
2018-08-10T09:18:24.804Z,29.05
2018-08-10T09:19:24.790Z,29.05
2018-08-10T09:20:24.789Z,29.18
2018-08-10T09:21:24.774Z,28.74
2018-08-10T09:22:24.760Z,28.83
2018-08-10T09:23:24.804Z,28.61
2018-08-10T09:24:24.733Z,28.60
2018-08-10T09:25:24.734Z,27.45
2018-08-10T09:26:24.760Z,27.74
2018-08-10T09:27:24.703Z,27.35
2018-08-10T09:28:24.692Z,27.98
2018-08-10T09:29:24.680Z,28.45
2018-08-10T09:30:24.681Z,28.85
2018-08-10T09:31:24.661Z,28.65
2018-08-10T09:32:24.657Z,28.58
2018-08-10T09:33:24.640Z,28.09
2018-08-10T09:34:24.636Z,27.65
2018-08-10T09:35:24.628Z,27.90
2018-08-10T09:36:24.604Z,28.25
2018-08-10T09:37:24.595Z,27.65
2018-08-10T09:38:24.630Z,26.78
2018-08-10T09:39:24.573Z,26.51
2018-08-10T09:40:24.571Z,26.31
2018-08-10T09:41:24.554Z,26.21
2018-08-10T09:42:24.536Z,25.76
2018-08-10T09:43:24.526Z,25.30
2018-08-10T09:44:24.513Z,25.91
2018-08-10T09:45:24.533Z,26.27
2018-08-10T09:46:24.492Z,26.31
2018-08-10T09:47:24.483Z,25.64
2018-08-10T09:48:24.478Z,25.89
2018-08-10T09:49:24.463Z,26.72
2018-08-10T09:50:24.461Z,27.43
2018-08-10T09:51:24.437Z,27.91
2018-08-10T09:52:24.440Z,28.36
2018-08-10T09:53:24.418Z,28.70
2018-08-10T09:54:24.418Z,27.86
2018-08-10T09:55:24.406Z,27.98
2018-08-10T09:56:24.385Z,27.88
2018-08-10T09:57:24.371Z,27.06
2018-08-10T09:58:24.361Z,27.21
2018-08-10T09:59:24.353Z,26.71
2018-08-10T10:00:24.348Z,26.75
2018-08-10T10:01:24.327Z,26.65
2018-08-10T10:02:24.317Z,26.54
2018-08-10T10:03:24.317Z,26.28
2018-08-10T10:04:24.296Z,26.08
2018-08-10T10:05:24.315Z,25.91
2018-08-10T10:06:24.273Z,25.49
2018-08-10T10:07:24.270Z,25.27
2018-08-10T10:08:24.252Z,25.14
2018-08-10T10:09:24.240Z,24.97
2018-08-10T10:10:24.244Z,24.92
2018-08-10T10:11:24.221Z,24.64
2018-08-10T10:12:24.209Z,24.39
2018-08-10T10:13:24.213Z,24.36
2018-08-10T10:14:24.190Z,23.89
2018-08-10T10:15:24.191Z,23.77
2018-08-10T10:16:24.184Z,23.77
2018-08-10T10:17:24.205Z,23.75
2018-08-10T10:18:24.143Z,23.69
2018-08-10T10:19:24.136Z,23.53
2018-08-10T10:20:24.152Z,23.47
2018-08-10T10:21:24.110Z,23.19
2018-08-10T10:22:24.096Z,23.22
2018-08-10T10:23:24.088Z,23.11
2018-08-10T10:24:24.074Z,23.03
2018-08-10T10:25:24.065Z,22.85
2018-08-10T10:26:24.063Z,22.81
2018-08-10T10:27:24.045Z,22.89
2018-08-10T10:28:24.031Z,22.86
2018-08-10T10:29:24.022Z,22.85
2018-08-10T10:30:24.011Z,22.79
2018-08-10T10:31:24.016Z,22.74
2018-08-10T10:32:23.989Z,22.79
2018-08-10T10:33:23.977Z,22.82
2018-08-10T10:34:23.981Z,22.94
2018-08-10T10:35:23.953Z,23.07
2018-08-10T10:36:23.963Z,23.12
2018-08-10T10:37:23.937Z,23.18
2018-08-10T10:38:23.921Z,23.19
2018-08-10T10:39:23.913Z,23.37
2018-08-10T10:40:23.904Z,23.31
2018-08-10T10:41:23.928Z,23.39
2018-08-10T10:42:23.879Z,23.47
2018-08-10T10:43:23.870Z,23.49
2018-08-10T10:44:23.860Z,23.57
2018-08-10T10:45:23.845Z,23.67
2018-08-10T10:46:23.847Z,23.68
2018-08-10T10:47:23.838Z,23.59
2018-08-10T10:48:23.813Z,23.37
2018-08-10T10:49:23.801Z,23.32
2018-08-10T10:50:23.792Z,23.26
2018-08-10T10:51:23.788Z,23.15
2018-08-10T10:52:23.771Z,23.22
2018-08-10T10:53:23.761Z,23.38
2018-08-10T10:54:23.747Z,23.41
2018-08-10T10:55:23.769Z,23.44
2018-08-10T10:56:23.744Z,23.54
2018-08-10T10:57:23.717Z,23.50
2018-08-10T10:58:23.704Z,23.57
2018-08-10T10:59:23.692Z,23.53
2018-08-10T11:00:23.683Z,23.53
2018-08-10T11:01:23.680Z,23.50
2018-08-10T11:02:23.660Z,23.54
2018-08-10T11:03:23.647Z,23.64
2018-08-10T11:04:23.636Z,23.47
2018-08-10T11:05:23.628Z,23.45
2018-08-10T11:06:23.706Z,23.41
2018-08-10T11:07:23.604Z,23.41
2018-08-10T11:08:23.597Z,23.35
2018-08-10T11:09:23.584Z,23.22
2018-08-10T11:10:23.573Z,23.22
2018-08-10T11:11:23.569Z,23.15
2018-08-10T11:12:23.549Z,23.11
2018-08-10T11:13:23.537Z,23.16
2018-08-10T11:14:23.527Z,23.22
2018-08-10T11:15:23.520Z,23.19
2018-08-10T11:16:23.515Z,23.25
2018-08-10T11:17:23.497Z,23.32
2018-08-10T11:18:23.490Z,23.41
2018-08-10T11:19:23.473Z,23.38
2018-08-10T11:20:23.461Z,23.38
2018-08-10T11:21:23.467Z,23.23
2018-08-10T11:22:23.441Z,23.29
2018-08-10T11:23:23.430Z,23.31
2018-08-10T11:24:23.417Z,23.29
2018-08-10T11:25:23.526Z,23.42
2018-08-10T11:26:23.408Z,23.35
2018-08-10T11:27:23.386Z,23.44
2018-08-10T11:28:23.379Z,23.35
2018-08-10T11:29:23.361Z,23.34
2018-08-10T11:30:23.385Z,23.41
2018-08-10T11:31:23.352Z,23.53
2018-08-10T11:32:23.390Z,23.59
2018-08-10T11:33:23.322Z,23.77
2018-08-10T11:34:23.311Z,23.68
2018-08-10T11:35:23.298Z,23.68
2018-08-10T11:36:23.305Z,23.75
2018-08-10T11:37:23.276Z,23.74
2018-08-10T11:38:23.264Z,23.75
2018-08-10T11:39:23.253Z,23.68
2018-08-10T11:40:23.240Z,23.71
2018-08-10T11:41:23.247Z,23.62
2018-08-10T11:42:23.219Z,23.69
2018-08-10T11:43:23.210Z,23.44
2018-08-10T11:44:23.211Z,23.50
2018-08-10T11:45:23.187Z,23.41
2018-08-10T11:46:23.188Z,23.42
2018-08-10T11:47:23.171Z,23.41
2018-08-10T11:48:23.157Z,23.23
2018-08-10T11:49:23.149Z,23.31
2018-08-10T11:50:23.134Z,23.37
2018-08-10T11:51:23.133Z,23.44
2018-08-10T11:52:23.117Z,23.53
2018-08-10T11:53:23.101Z,23.56
2018-08-10T11:54:23.093Z,23.60
2018-08-10T11:55:23.080Z,23.75
2018-08-10T11:56:23.089Z,23.64
2018-08-10T11:57:23.073Z,23.64
2018-08-10T11:58:23.046Z,23.49
2018-08-10T11:59:23.035Z,23.47
2018-08-10T12:00:23.049Z,23.54
2018-08-10T12:01:23.024Z,23.49
2018-08-10T12:02:23.004Z,23.47
2018-08-10T12:03:22.991Z,23.47
2018-08-10T12:04:22.979Z,23.54
2018-08-10T12:05:22.970Z,23.42
2018-08-10T12:06:22.968Z,23.32
2018-08-10T12:07:22.949Z,23.25
2018-08-10T12:08:22.935Z,23.07
2018-08-10T12:09:22.925Z,23.03
2018-08-10T12:10:22.915Z,22.96
2018-08-10T12:11:22.913Z,23.14
2018-08-10T12:12:22.894Z,23.23
2018-08-10T12:13:22.881Z,23.23
2018-08-10T12:14:22.869Z,23.34
2018-08-10T12:15:22.863Z,23.44
2018-08-10T12:16:22.856Z,23.38
2018-08-10T12:17:22.836Z,23.23
2018-08-10T12:20:56.580Z,23.26
2018-08-10T12:21:56.580Z,23.26
2018-08-10T12:22:56.560Z,23.37
2018-08-10T12:23:56.543Z,23.39
2018-08-10T12:24:56.565Z,23.37
2018-08-10T12:25:56.573Z,23.45
2018-08-10T12:26:56.523Z,23.32
2018-08-10T12:27:56.499Z,23.35
2018-08-10T12:28:56.490Z,23.19
2018-08-10T12:29:56.475Z,23.09
2018-08-10T12:30:56.465Z,23.04
2018-08-10T12:31:56.465Z,23.07
2018-08-10T12:32:56.445Z,23.00
2018-08-10T12:33:56.431Z,22.99
2018-08-10T12:34:56.420Z,23.00
2018-08-10T12:35:56.425Z,23.09
2018-08-10T12:36:56.410Z,23.22
2018-08-10T12:37:56.391Z,23.31
2018-08-10T12:38:56.383Z,23.23
2018-08-10T12:39:56.409Z,23.15
2018-08-10T12:40:56.356Z,23.16
2018-08-10T12:41:56.354Z,22.99
2018-08-10T12:42:56.340Z,22.75
2018-08-10T12:43:56.320Z,22.19
2018-08-10T12:44:56.314Z,21.89
2018-08-10T12:45:56.301Z,21.73
2018-08-10T12:46:56.302Z,21.42
2018-08-10T12:47:56.279Z,21.43
2018-08-10T12:48:56.269Z,21.49
2018-08-10T12:49:56.258Z,21.55
2018-08-10T12:50:56.244Z,21.61
2018-08-10T12:51:56.247Z,21.68
2018-08-10T12:52:56.227Z,22.06
2018-08-10T12:53:56.214Z,22.23
2018-08-10T12:54:56.202Z,22.36
2018-08-10T12:55:56.196Z,22.44
2018-08-10T12:56:56.233Z,22.52
2018-08-10T12:57:56.173Z,22.57
2018-08-10T12:58:56.160Z,22.56
2018-08-10T12:59:56.156Z,22.60
2018-08-10T13:00:56.136Z,22.67
2018-08-10T13:01:56.143Z,22.75
2018-08-10T13:02:56.145Z,22.69
2018-08-10T13:03:56.105Z,22.78
2018-08-10T13:04:56.096Z,22.82
2018-08-10T13:05:56.089Z,22.99
2018-08-10T13:06:56.080Z,22.88
2018-08-10T13:07:56.060Z,23.07
2018-08-10T13:08:56.051Z,22.94
2018-08-10T13:09:56.036Z,22.89
2018-08-10T13:10:56.030Z,22.84
2018-08-10T13:11:56.031Z,22.86
2018-08-10T13:12:56.007Z,22.79
2018-08-10T13:13:55.997Z,22.76
2018-08-10T13:14:55.981Z,22.75
2018-08-10T13:15:55.972Z,22.66
2018-08-10T13:16:55.973Z,22.63
2018-08-10T13:17:55.953Z,22.63
2018-08-10T13:18:55.939Z,22.57
2018-08-10T13:19:55.934Z,22.63
2018-08-10T13:20:55.928Z,22.63
2018-08-10T13:21:55.916Z,22.69
2018-08-10T13:22:55.896Z,22.78
2018-08-10T13:23:55.919Z,22.89
2018-08-10T13:24:55.873Z,22.88
2018-08-10T13:25:55.863Z,22.96
2018-08-10T13:26:55.860Z,23.00
2018-08-10T13:27:55.840Z,23.06
2018-08-10T13:28:55.828Z,23.03
2018-08-10T13:29:55.820Z,22.97
2018-08-10T13:30:55.806Z,22.99
2018-08-10T13:31:55.807Z,23.06
2018-08-10T13:32:55.796Z,23.12
2018-08-10T13:33:55.772Z,22.99
2018-08-10T13:34:55.772Z,23.03
2018-08-10T13:35:55.754Z,23.00
2018-08-10T13:36:55.749Z,22.99
2018-08-10T13:37:55.745Z,22.97
2018-08-10T13:38:55.724Z,22.97
2018-08-10T13:39:55.709Z,22.99
2018-08-10T13:40:55.759Z,22.96
2018-08-10T13:41:55.689Z,22.91
2018-08-10T13:42:55.685Z,22.97
2018-08-10T13:43:55.668Z,22.82
2018-08-10T13:44:55.657Z,22.85
2018-08-10T13:45:55.642Z,22.89
2018-08-10T13:46:55.630Z,23.01
2018-08-10T13:47:55.632Z,23.00
2018-08-10T13:48:55.609Z,23.00
2018-08-10T13:49:55.600Z,22.99
2018-08-10T13:50:55.590Z,23.18
2018-08-10T13:51:55.576Z,23.26
2018-08-10T13:52:55.580Z,23.23
2018-08-10T13:53:55.556Z,23.26
2018-08-10T13:54:55.549Z,23.31
2018-08-10T13:55:55.535Z,23.34
2018-08-10T13:56:55.525Z,23.26
2018-08-10T13:57:55.525Z,23.32
2018-08-10T13:58:55.503Z,23.32
2018-08-10T13:59:55.491Z,23.31
2018-08-10T14:00:55.478Z,23.23
2018-08-10T14:01:55.470Z,23.35
2018-08-10T14:02:55.470Z,23.34
2018-08-10T14:03:55.454Z,23.18
2018-08-10T14:04:55.445Z,23.22
2018-08-10T14:05:55.573Z,23.22
2018-08-10T14:06:55.412Z,23.25
2018-08-10T14:07:55.411Z,23.25
2018-08-10T14:08:55.394Z,23.25
2018-08-10T14:09:55.381Z,23.21
2018-08-10T14:10:55.372Z,23.18
2018-08-10T14:11:55.358Z,23.11
2018-08-10T14:12:55.360Z,23.12
2018-08-10T14:13:55.338Z,23.12
2018-08-10T14:14:55.327Z,23.07
2018-08-10T14:15:55.522Z,23.09
2018-08-10T14:16:55.302Z,23.06
2018-08-10T14:17:55.301Z,22.99
2018-08-10T14:18:55.281Z,22.99
2018-08-10T14:19:55.274Z,22.97
2018-08-10T14:20:55.258Z,23.01
2018-08-10T14:21:55.255Z,22.88
2018-08-10T14:22:55.256Z,22.84
2018-08-10T14:23:55.225Z,22.88
2018-08-10T14:24:55.216Z,22.88
2018-08-10T14:25:55.204Z,22.82
2018-08-10T14:26:55.194Z,22.72
2018-08-10T14:27:55.225Z,22.69
2018-08-10T14:28:55.176Z,22.60
2018-08-10T14:29:55.160Z,22.51
2018-08-10T14:30:55.151Z,22.60
2018-08-10T14:31:55.140Z,22.69
2018-08-10T14:32:55.138Z,22.78
2018-08-10T14:33:55.117Z,22.74
2018-08-10T14:34:55.107Z,22.81
2018-08-10T14:35:55.127Z,22.89
2018-08-10T14:36:55.083Z,22.88
2018-08-10T14:37:55.093Z,22.78
2018-08-10T14:38:55.072Z,22.84
2018-08-10T14:39:55.051Z,22.88
2018-08-10T14:40:55.038Z,22.97
2018-08-10T14:41:55.030Z,22.96
2018-08-10T14:42:55.029Z,23.07
2018-08-10T14:43:55.008Z,23.11
2018-08-10T14:44:54.996Z,23.18
2018-08-10T14:45:54.989Z,23.18
2018-08-10T14:46:55.035Z,23.19
2018-08-10T14:47:54.974Z,23.12
2018-08-10T14:48:54.955Z,23.07
2018-08-10T14:49:54.941Z,23.07
2018-08-10T14:50:54.933Z,23.00
2018-08-10T14:51:54.919Z,22.91
2018-08-10T14:52:54.921Z,22.93
2018-08-10T14:53:54.899Z,22.91
2018-08-10T14:54:54.886Z,22.79
2018-08-10T14:55:54.874Z,22.84
2018-08-10T14:56:54.863Z,22.74
2018-08-10T14:57:54.864Z,22.74
2018-08-10T14:58:54.849Z,22.70
2018-08-10T14:59:54.832Z,22.76
2018-08-10T15:00:54.821Z,22.70
2018-08-10T15:01:54.810Z,22.64
2018-08-10T15:02:54.809Z,22.60
2018-08-10T15:03:54.792Z,22.56
2018-08-10T15:04:54.776Z,22.56
2018-08-10T15:05:54.766Z,22.51
2018-08-10T15:06:54.756Z,22.44
2018-08-10T15:07:54.755Z,22.44
2018-08-10T15:08:54.738Z,22.45
2018-08-10T15:09:54.724Z,22.36
2018-08-10T15:10:54.713Z,22.27
2018-08-10T15:11:54.825Z,22.26
2018-08-10T15:12:55.007Z,22.23
2018-08-10T15:13:54.678Z,22.33
2018-08-10T15:14:54.673Z,22.31
2018-08-10T15:15:54.656Z,22.36
2018-08-10T15:16:54.649Z,22.39
2018-08-10T15:17:54.645Z,22.42
2018-08-10T15:18:54.625Z,22.41
2018-08-10T15:19:54.612Z,22.41
2018-08-10T15:20:54.603Z,22.45
2018-08-10T15:21:54.590Z,22.41
2018-08-10T15:22:54.591Z,22.52
2018-08-10T15:23:54.567Z,22.54
2018-08-10T15:24:54.566Z,22.45
2018-08-10T15:25:54.548Z,22.46
2018-08-10T15:26:55.005Z,22.52
2018-08-10T15:27:54.538Z,22.54
2018-08-10T15:28:54.520Z,22.59
2018-08-10T15:29:54.504Z,22.66
2018-08-10T15:30:54.491Z,22.70
2018-08-10T15:31:54.482Z,22.79
2018-08-10T15:32:54.484Z,22.79
2018-08-10T15:33:54.472Z,22.91
2018-08-10T15:34:54.450Z,22.89
2018-08-10T15:35:54.436Z,22.86
2018-08-10T15:36:54.430Z,22.88
2018-08-10T15:37:54.447Z,22.97
2018-08-10T15:38:54.406Z,22.88
2018-08-10T15:39:54.394Z,22.79
2018-08-10T15:40:54.386Z,22.60
2018-08-10T15:41:54.378Z,22.60
2018-08-10T15:42:54.361Z,22.59
2018-08-10T15:43:54.359Z,22.64
2018-08-10T15:44:54.338Z,22.61
2018-08-10T15:45:54.331Z,22.63
2018-08-10T15:46:54.324Z,22.59
2018-08-10T15:47:54.306Z,22.57
2018-08-10T15:48:54.324Z,22.60
2018-08-10T15:49:54.299Z,22.64
2018-08-10T15:50:54.278Z,22.70
2018-08-10T15:51:54.262Z,22.75
2018-08-10T15:52:54.251Z,22.75
2018-08-10T15:53:54.251Z,22.81
2018-08-10T15:54:54.245Z,22.79
2018-08-10T15:55:54.219Z,22.78
2018-08-10T15:56:54.205Z,22.75
2018-08-10T15:57:54.197Z,22.63
2018-08-10T15:58:54.201Z,22.66
2018-08-10T15:59:54.174Z,22.61
2018-08-10T16:00:54.163Z,22.59
2018-08-10T16:01:54.154Z,22.46
2018-08-10T16:02:54.141Z,22.44
2018-08-10T16:03:54.147Z,22.41
2018-08-10T16:04:54.118Z,22.39
2018-08-10T16:05:54.152Z,22.31
2018-08-10T16:06:54.098Z,22.30
2018-08-10T16:07:54.086Z,22.26
2018-08-10T16:08:54.085Z,22.21
2018-08-10T16:09:54.066Z,22.35
2018-08-10T16:10:54.056Z,22.21
2018-08-10T16:11:54.043Z,22.33
2018-08-10T16:12:54.031Z,22.24
2018-08-10T16:13:54.093Z,22.29
2018-08-10T16:14:54.010Z,22.26
2018-08-10T16:15:53.996Z,22.09
2018-08-10T16:16:53.988Z,22.08
2018-08-10T16:17:53.976Z,22.05
2018-08-10T16:18:53.973Z,21.98
2018-08-10T16:19:53.959Z,21.94
2018-08-10T16:20:53.941Z,22.06
2018-08-10T16:21:53.937Z,22.04
2018-08-10T16:22:53.923Z,22.11
2018-08-10T16:23:53.921Z,22.11
2018-08-10T16:24:53.899Z,22.23
2018-08-10T16:25:53.889Z,22.24
2018-08-10T16:26:53.877Z,22.19
2018-08-10T16:27:53.864Z,22.23
2018-08-10T16:28:53.865Z,22.12
2018-08-10T16:29:53.846Z,22.14
2018-08-10T16:30:53.834Z,22.01
2018-08-10T16:31:53.863Z,21.90
2018-08-10T16:32:53.810Z,21.75
2018-08-10T16:33:53.812Z,21.77
2018-08-10T16:34:53.790Z,21.79
2018-08-10T16:35:53.798Z,21.85
2018-08-10T16:36:53.769Z,21.81
2018-08-10T16:37:53.759Z,21.77
2018-08-10T16:38:53.782Z,21.89
2018-08-10T16:39:53.736Z,21.91
2018-08-10T16:40:53.723Z,21.81
2018-08-10T16:41:53.710Z,21.79
2018-08-10T16:42:53.702Z,21.77
2018-08-10T16:43:53.701Z,21.79
2018-08-10T16:44:53.684Z,21.73
2018-08-10T16:45:53.669Z,21.75
2018-08-10T16:46:53.660Z,21.68
2018-08-10T16:47:53.646Z,21.55
2018-08-10T16:48:53.647Z,21.66
2018-08-10T16:49:53.732Z,21.58
2018-08-10T16:50:53.618Z,21.61
2018-08-10T16:51:53.601Z,21.61
2018-08-10T16:52:53.589Z,21.58
2018-08-10T16:53:53.594Z,21.46
2018-08-10T16:54:53.652Z,21.49